Spacecraft Satellite overpass computed based on SGP4 code. Updated every day at 2:25 LT
Spacecraft : Terra    
         GMT                             Satellite      Satellite     Solar          Solar         Scat ang       
  year-mo-da hr:mn:sc    elevation     azimuth    elevation   azimuth    (bk=180)     
  2020-07-08 08:17:41     17.2             89.4          51.2           122.2         137.2
  2020-07-08 09:55:55     69.7            287.8          61.3           159.6         136.0
  2020-07-08 11:32:50     12.2            307.1          60.5           206.5          95.5
  2020-07-08 19:28:37     31.6             64.3          -6.0           316.8        -999.0
  2020-07-08 21:06:17     38.1            262.7         -14.4           338.1        -999.0
Spacecraft : Aqua    
         GMT                             Satellite      Satellite     Solar          Solar         Scat ang       
  year-mo-da hr:mn:sc    elevation     azimuth    elevation   azimuth    (bk=180)     
  2020-07-08 00:31:02     65.2            102.2         -12.9            26.8        -999.0
  2020-07-08 02:08:22     20.4            300.9          -3.4            47.5        -999.0
  2020-07-08 10:04:02     19.0             58.2          61.7           163.4          99.8
  2020-07-08 11:41:18     70.9            257.1          59.8           210.2         158.3
  2020-07-08 23:35:43     21.9             91.8         -16.1            14.0        -999.0
Spacecraft : CALIPSO    
         GMT                             Satellite      Satellite     Solar          Solar         Scat ang       
  year-mo-da hr:mn:sc    elevation     azimuth    elevation   azimuth    (bk=180)     
  2020-07-08 01:21:35     78.6            286.6          -8.5            37.9        -999.0
  2020-07-08 02:58:14     13.3            305.7           2.6            57.1          69.9
  2020-07-08 10:52:18     26.8             62.6          62.4           187.3          99.4
  2020-07-08 12:29:30     44.6            261.1          54.8           228.8         157.0
Spacecraft : CloudSat    
         GMT                             Satellite      Satellite     Solar          Solar         Scat ang       
  year-mo-da hr:mn:sc    elevation     azimuth    elevation   azimuth    (bk=180)     
  2020-07-08 01:22:29     78.6            286.7          -8.4            38.1        -999.0
  2020-07-08 02:59:08     13.3            305.7           2.7            57.3          69.8
  2020-07-08 10:53:12     26.8             62.6          62.3           187.7          99.3
  2020-07-08 12:30:24     44.6            261.1          54.7           229.1         157.2
Spacecraft : ISS    
         GMT                             Satellite      Satellite     Solar          Solar         Scat ang       
  year-mo-da hr:mn:sc    elevation     azimuth    elevation   azimuth    (bk=180)     
  2020-07-08 01:29:34     64.9            356.4          -7.7            39.6        -999.0
  2020-07-08 03:06:30     89.4            191.6           3.7            58.6          93.3
  2020-07-08 04:43:02     25.7            215.1          17.8            76.1          59.0
  2020-07-08 23:05:09     44.4            152.0         -17.0             6.6        -999.0